Карточка аэропорта UAKK

Внимание!
Информация на этой странице в стадии наполнения.
Если вы не увидели какой-то информации, или заметили неточность - пожалуйста сообщите нам!
Спасибо!
Команда RU-STAFF
Название аэропортаКараганда
Название аэропорта (англ.)Karaganda
Превышение1768 ft. (538.9 m.)
Координаты49°40.302', 73°20.118'
Высота перехода10000
Эшелон переходаby ATC
Коды ответчика0630-0637, 7220-7227
Зона ОрВДАстана РПИ (UACN)
Данные METARUAKK 150130Z 32002MPS 270V360 9999 FEW050CB 07/05 Q1012 NOSIG RMK QFE712/0950
Проноз погоды (TAF)UAKK 142302Z 1500/1524 VRB02MPS 9999 BKN030 BKN080 TX17/1509Z TN06/1501Z TEMPO 1500/1506 33005MPS 3100 -SHRA BR BKN010 BKN020CB BECMG 1506/1508 33005MPS SCT040 BKN100 TEMPO 1510/1516 02006MPS BECMG 1516/1518 08005MPS TEMPO 1516/1524 VRB02MPS 3100 -SHRA BR BKN011 BKN020CB
NOTAMshow/hide NOTAM
AWOS   TABLE

Информация о ВПП

ВПП Длина ВПП (м.) Покрытие Курс ВПП Частота ILS
053601Железобетон50109.9
233601Железобетон230111.7

Диспетчерские позиции




Спутниковое изображение